Navy Supply Corps School, Georgia
Current Conditions -  °F | °C
As of 10:21 AM on Monday 22 Dec 2014 (Local Time) from KAHN Reporting Station
Haze Haze  
Wind Chill: 39°   Ceiling: 300
Heat Index: 44°   Visibility: 1.2mi
Dew Point: 43°   Wind: 9mph
Humidity: 96%   Direction: 60°ENE
Pressure: 30.06"   Gusts: NA
Location:  33.9381°N, 83.4292°W
Report Text: KAHN 221521Z 06008KT 1 1/4SM BR OVC003 07/06 A3006 RMK AO2 T00670061
Loading
Personal Weather Stations






























Interactive Weather Map New forecast layout! Learn more

10-Day Weather Forecast

Advertisements
Track Severe Weather on mobile